Time;durP1;ratioP1;P1;durP2;ratioP2;P2;SDS_P1;SDS_P2;PMS_P1;PMS_P2;Temp;Humidity;BMP_temperature;BMP_pressure;BME280_temperature;BME280_humidity;BME280_pressure;Samples;Min_cycle;Max_cycle;Signal;HPM_P1;HPM_P2
2022/10/03 00:01:51;;;;;;;6.27;3.10;;;11.50;99.90;;;;;;5071472;28;20504;-47
2022/10/03 00:04:43;;;;;;;7.80;2.53;;;11.60;99.90;;;;;;5056028;28;20420;-48
2022/10/03 00:07:24;;;;;;;6.40;3.27;;;11.70;99.90;;;;;;5066720;28;20922;-48
2022/10/03 00:10:14;;;;;;;10.00;3.50;;;11.70;99.90;;;;;;5070638;28;20455;-52
2022/10/03 00:12:50;;;;;;;8.37;3.37;;;11.80;99.90;;;;;;5070399;28;20412;-48
2022/10/03 00:15:34;;;;;;;5.83;3.07;;;11.80;99.90;;;;;;5071540;28;20419;-48
2022/10/03 00:18:40;;;;;;;4.93;2.80;;;11.90;99.90;;;;;;5071411;28;20411;-49
2022/10/03 00:21:16;;;;;;;6.83;2.97;;;12.10;99.90;;;;;;5071399;28;20491;-51
2022/10/03 00:23:54;;;;;;;5.03;3.00;;;12.10;99.90;;;;;;5070890;28;20837;-49
2022/10/03 00:26:29;;;;;;;7.83;2.80;;;12.00;99.90;;;;;;5071270;28;20455;-50
2022/10/03 00:29:06;;;;;;;5.03;2.50;;;12.00;99.90;;;;;;5071179;28;20404;-50
2022/10/03 00:31:53;;;;;;;6.90;2.90;;;12.10;99.90;;;;;;5071139;28;20454;-51
2022/10/03 00:34:41;;;;;;;4.13;2.90;;;12.00;99.90;;;;;;5069885;28;20454;-52
2022/10/03 00:37:31;;;;;;;8.37;2.70;;;12.00;99.90;;;;;;5070818;28;20483;-51
2022/10/03 00:40:26;;;;;;;9.00;3.50;;;11.90;99.90;;;;;;5071252;28;20407;-49
2022/10/03 00:43:00;;;;;;;13.50;4.23;;;11.90;99.90;;;;;;5071008;28;20899;-50
2022/10/03 00:45:44;;;;;;;10.57;3.27;;;11.80;99.90;;;;;;5070540;28;20435;-50
2022/10/03 00:48:31;;;;;;;5.50;2.90;;;11.80;99.90;;;;;;5071116;28;20406;-49
2022/10/03 00:51:02;;;;;;;10.20;3.00;;;11.80;99.90;;;;;;5072139;28;21040;-49
2022/10/03 00:54:04;;;;;;;6.80;2.60;;;11.80;99.90;;;;;;5081794;28;20409;-52
2022/10/03 00:57:09;;;;;;;12.83;3.83;;;11.80;99.90;;;;;;5059364;28;20414;-53
2022/10/03 00:59:41;;;;;;;8.23;3.27;;;11.80;99.90;;;;;;5028182;28;20421;-53
2022/10/03 01:02:45;;;;;;;8.80;3.00;;;11.80;99.90;;;;;;5048318;28;20427;-51
2022/10/03 01:05:15;;;;;;;4.27;2.50;;;11.80;99.90;;;;;;5061954;28;21082;-49
2022/10/03 01:08:22;;;;;;;5.40;2.70;;;12.00;99.90;;;;;;5065109;28;20423;-49
2022/10/03 01:10:51;;;;;;;7.43;2.27;;;11.90;99.90;;;;;;5026848;28;20548;-47
2022/10/03 01:13:35;;;;;;;8.50;2.80;;;12.00;99.90;;;;;;5061049;28;20829;-51
2022/10/03 01:16:14;;;;;;;7.80;3.00;;;12.00;99.90;;;;;;5069874;28;20486;-52
2022/10/03 01:18:54;;;;;;;5.50;2.83;;;12.00;99.90;;;;;;5069757;28;20451;-53
2022/10/03 01:21:25;;;;;;;6.70;2.80;;;12.10;99.90;;;;;;5069842;28;20435;-51
2022/10/03 01:24:09;;;;;;;10.93;3.10;;;12.20;99.90;;;;;;5069205;28;20473;-47
2022/10/03 01:26:52;;;;;;;6.73;2.80;;;12.20;99.90;;;;;;5061364;28;20498;-50
2022/10/03 01:32:15;;;;;;;7.70;3.10;;;12.20;99.90;;;;;;5052546;28;20431;-50
2022/10/03 01:34:45;;;;;;;5.63;2.83;;;12.20;99.90;;;;;;5069607;28;20419;-51
2022/10/03 01:37:52;;;;;;;5.53;2.50;;;12.20;99.90;;;;;;5056182;28;20863;-54
2022/10/03 01:40:28;;;;;;;10.20;3.10;;;12.20;99.90;;;;;;5054223;28;20776;-52
2022/10/03 01:43:10;;;;;;;6.63;2.83;;;12.30;99.90;;;;;;5070058;28;20407;-54
2022/10/03 01:45:46;;;;;;;9.00;3.10;;;12.30;99.90;;;;;;5069855;28;20391;-51
2022/10/03 01:48:21;;;;;;;7.63;3.20;;;12.20;99.90;;;;;;5069612;28;20507;-49
2022/10/03 01:51:07;;;;;;;8.60;3.37;;;12.20;99.90;;;;;;5069922;28;20515;-52
2022/10/03 01:53:57;;;;;;;8.63;2.63;;;12.10;99.90;;;;;;5068388;28;20410;-53
2022/10/03 01:56:34;;;;;;;10.33;3.27;;;12.00;99.90;;;;;;5049974;28;20496;-49
2022/10/03 01:59:12;;;;;;;7.00;3.03;;;12.00;99.90;;;;;;5050965;28;21227;-48
2022/10/03 02:02:16;;;;;;;11.00;3.13;;;11.90;99.90;;;;;;5050763;28;20462;-51
2022/10/03 02:05:02;;;;;;;9.20;3.40;;;11.90;99.90;;;;;;5049040;28;20470;-50
2022/10/03 02:07:40;;;;;;;9.60;2.80;;;12.00;99.90;;;;;;5050759;28;20417;-48
2022/10/03 02:10:32;;;;;;;8.10;3.00;;;12.00;99.90;;;;;;5068929;28;20923;-49
2022/10/03 02:13:12;;;;;;;6.47;3.00;;;12.00;99.90;;;;;;5069113;28;20932;-49
2022/10/03 02:15:53;;;;;;;6.03;2.53;;;12.00;99.90;;;;;;5069147;28;20498;-49
2022/10/03 02:18:43;;;;;;;8.90;3.23;;;12.00;99.90;;;;;;5055800;28;20419;-52
2022/10/03 02:21:14;;;;;;;8.20;3.10;;;12.00;99.90;;;;;;5068919;28;20819;-51
2022/10/03 02:23:43;;;;;;;6.70;2.93;;;12.00;99.90;;;;;;5067152;28;20429;-52
2022/10/03 02:26:15;;;;;;;7.40;2.80;;;12.00;99.90;;;;;;5078253;28;20817;-52
2022/10/03 02:28:58;;;;;;;8.73;3.63;;;12.00;99.90;;;;;;5069162;28;20403;-50
2022/10/03 02:31:45;;;;;;;6.83;3.20;;;12.10;99.90;;;;;;5068832;28;21090;-51
2022/10/03 02:34:35;;;;;;;10.63;3.60;;;12.00;99.90;;;;;;5055626;28;20420;-53
2022/10/03 02:37:34;;;;;;;8.60;3.57;;;12.00;99.90;;;;;;5062596;28;20474;-50
2022/10/03 02:40:44;;;;;;;5.60;2.83;;;12.00;99.90;;;;;;5072802;28;20498;-53
2022/10/03 02:43:43;;;;;;;7.97;3.90;;;12.00;99.90;;;;;;5066722;28;20420;-50
2022/10/03 02:46:36;;;;;;;7.27;3.23;;;12.00;99.90;;;;;;5052791;28;20440;-52
2022/10/03 02:49:24;;;;;;;11.73;4.20;;;11.90;99.90;;;;;;5054256;28;20513;-50
2022/10/03 02:52:23;;;;;;;8.53;3.63;;;11.90;99.90;;;;;;5062932;28;20429;-50
2022/10/03 02:54:53;;;;;;;11.90;4.03;;;11.90;99.90;;;;;;5072956;28;20476;-49
2022/10/03 02:57:45;;;;;;;7.40;3.87;;;11.90;99.90;;;;;;5072579;28;20423;-54
2022/10/03 03:00:46;;;;;;;8.00;4.20;;;11.90;99.90;;;;;;5047765;28;20469;-50
2022/10/03 03:03:34;;;;;;;9.90;3.80;;;11.90;99.90;;;;;;5072600;28;20472;-49
2022/10/03 03:06:36;;;;;;;12.83;4.77;;;12.00;99.90;;;;;;5053534;28;20420;-51
2022/10/03 03:09:40;;;;;;;6.30;4.40;;;12.00;99.90;;;;;;5052384;28;20428;-52
2022/10/03 03:12:25;;;;;;;12.77;5.13;;;12.10;99.90;;;;;;5052462;28;21026;-53
2022/10/03 03:15:28;;;;;;;18.87;5.27;;;12.00;99.90;;;;;;5072284;28;20415;-51
2022/10/03 03:18:03;;;;;;;14.47;4.80;;;12.00;99.90;;;;;;5072378;28;20514;-54
2022/10/03 03:20:36;;;;;;;12.63;4.47;;;12.10;99.90;;;;;;5066733;28;20470;-50
2022/10/03 03:23:01;;;;;;;12.37;4.73;;;12.10;99.90;;;;;;5054842;28;20461;-51
2022/10/03 03:25:53;;;;;;;12.83;4.67;;;12.10;99.90;;;;;;5071213;28;20415;-50
2022/10/03 03:28:49;;;;;;;11.57;5.30;;;12.10;99.90;;;;;;5063806;28;20264;-49
2022/10/03 03:31:33;;;;;;;11.90;5.80;;;12.10;99.90;;;;;;5065069;28;20444;-52
2022/10/03 03:34:08;;;;;;;9.10;4.67;;;12.10;99.90;;;;;;5051957;28;20416;-52
2022/10/03 03:36:50;;;;;;;10.30;5.60;;;12.10;99.90;;;;;;5052072;28;20479;-53
2022/10/03 03:39:46;;;;;;;10.40;5.63;;;12.10;99.90;;;;;;5071388;28;20412;-50
2022/10/03 03:42:39;;;;;;;8.40;5.63;;;12.10;99.90;;;;;;5071856;28;20407;-50
2022/10/03 03:45:13;;;;;;;7.57;5.20;;;12.10;99.90;;;;;;5053473;28;20506;-50
2022/10/03 03:47:46;;;;;;;10.27;5.13;;;12.10;99.90;;;;;;5071474;28;20400;-51
2022/10/03 03:50:24;;;;;;;8.67;5.43;;;12.10;99.90;;;;;;5071847;28;20478;-51
2022/10/03 03:53:05;;;;;;;10.43;5.70;;;12.10;99.90;;;;;;5072738;28;20428;-50
2022/10/03 03:56:13;;;;;;;10.90;5.03;;;12.10;99.90;;;;;;5059340;28;20958;-51
2022/10/03 03:59:13;;;;;;;10.87;5.67;;;12.10;99.90;;;;;;5063048;28;20427;-52
2022/10/03 04:02:33;;;;;;;10.93;5.23;;;12.10;99.90;;;;;;5065832;28;20485;-53
2022/10/03 04:05:37;;;;;;;13.90;5.03;;;12.10;99.90;;;;;;5010663;28;20438;-53
2022/10/03 04:08:37;;;;;;;7.53;4.93;;;12.10;99.90;;;;;;5012297;28;20426;-54
2022/10/03 04:11:30;;;;;;;7.60;4.70;;;12.00;99.90;;;;;;5068310;28;20481;-49
2022/10/03 04:14:28;;;;;;;8.70;5.13;;;12.00;99.90;;;;;;5063290;28;20416;-51
2022/10/03 04:20:23;;;;;;;8.03;4.50;;;12.10;99.90;;;;;;5068508;28;20554;-52
2022/10/03 04:23:17;;;;;;;8.47;4.43;;;12.10;99.90;;;;;;5070852;28;20792;-50
2022/10/03 04:26:05;;;;;;;10.43;5.10;;;12.10;99.90;;;;;;5065884;28;20424;-51
2022/10/03 04:29:02;;;;;;;7.30;4.70;;;12.10;99.90;;;;;;5066499;28;20415;-50
2022/10/03 04:31:54;;;;;;;7.93;4.73;;;12.20;99.90;;;;;;5070809;28;20459;-52
2022/10/03 04:34:34;;;;;;;9.53;5.40;;;12.20;99.90;;;;;;5070929;28;20419;-52
2022/10/03 04:37:27;;;;;;;9.13;5.13;;;12.10;99.90;;;;;;5070516;28;20465;-51
2022/10/03 04:40:19;;;;;;;10.60;5.87;;;12.20;99.90;;;;;;5058802;28;20477;-54
2022/10/03 04:43:33;;;;;;;8.37;5.20;;;12.20;99.90;;;;;;5057809;28;20420;-51
2022/10/03 04:46:24;;;;;;;10.50;5.40;;;12.20;99.90;;;;;;5063469;28;20412;-51
2022/10/03 04:49:19;;;;;;;10.13;5.20;;;12.20;99.90;;;;;;5051124;28;20424;-52
2022/10/03 04:52:18;;;;;;;10.30;5.77;;;12.20;99.90;;;;;;5052631;28;20517;-50
2022/10/03 04:54:55;;;;;;;8.80;5.83;;;12.00;99.90;;;;;;5055299;28;20993;-50
2022/10/03 04:57:43;;;;;;;10.93;6.03;;;12.10;99.90;;;;;;5051636;28;20489;-50
2022/10/03 05:00:24;;;;;;;13.80;6.07;;;12.20;99.90;;;;;;5050026;28;20429;-53
2022/10/03 05:03:19;;;;;;;9.80;7.00;;;12.10;99.90;;;;;;5050418;28;20738;-51
2022/10/03 05:06:23;;;;;;;11.77;5.87;;;12.10;99.90;;;;;;5051015;28;20424;-52
2022/10/03 05:08:55;;;;;;;10.17;5.83;;;12.10;99.90;;;;;;5041390;28;20448;-50
2022/10/03 05:11:58;;;;;;;10.53;6.03;;;12.10;99.90;;;;;;5070022;28;20567;-48
2022/10/03 05:14:42;;;;;;;8.40;5.83;;;12.10;99.90;;;;;;5051005;28;20412;-54
2022/10/03 05:17:19;;;;;;;7.23;5.83;;;12.10;99.90;;;;;;5050004;28;21060;-52
2022/10/03 05:20:03;;;;;;;10.63;5.67;;;12.10;99.90;;;;;;5064898;28;20419;-47
2022/10/03 05:22:59;;;;;;;14.53;6.60;;;12.10;99.90;;;;;;5069861;28;20423;-53
2022/10/03 05:25:42;;;;;;;11.40;6.73;;;12.10;99.90;;;;;;5046085;28;20446;-52
2022/10/03 05:28:28;;;;;;;9.10;6.17;;;12.10;99.90;;;;;;5069012;28;20419;-51
2022/10/03 05:31:12;;;;;;;11.00;6.83;;;12.10;99.90;;;;;;5060427;28;20451;-50
2022/10/03 05:34:03;;;;;;;10.30;6.67;;;12.10;99.90;;;;;;5069899;28;20391;-49
2022/10/03 05:36:49;;;;;;;14.60;6.60;;;12.00;99.90;;;;;;5069873;28;20467;-54
2022/10/03 05:39:41;;;;;;;9.33;6.70;;;12.00;99.90;;;;;;5048439;28;20431;-48
2022/10/03 05:42:33;;;;;;;11.10;7.17;;;12.10;99.90;;;;;;5069770;28;20874;-48
2022/10/03 05:45:20;;;;;;;12.10;6.53;;;12.00;99.90;;;;;;5069521;28;20857;-52
2022/10/03 05:48:10;;;;;;;13.57;7.30;;;12.00;99.90;;;;;;5069452;28;20809;-50
2022/10/03 05:51:13;;;;;;;12.50;6.73;;;12.00;99.90;;;;;;5069836;28;20451;-50
2022/10/03 05:53:45;;;;;;;10.10;6.17;;;12.00;99.90;;;;;;5076539;28;20419;-49
2022/10/03 05:56:38;;;;;;;10.23;5.97;;;12.00;99.90;;;;;;5074450;28;20407;-52
2022/10/03 05:59:22;;;;;;;8.97;5.77;;;12.00;99.90;;;;;;5069539;28;20829;-51
2022/10/03 06:02:05;;;;;;;8.43;6.67;;;12.10;99.90;;;;;;5069394;28;20418;-49
2022/10/03 06:04:52;;;;;;;10.07;5.97;;;12.10;99.90;;;;;;5068277;28;20412;-51
2022/10/03 06:07:45;;;;;;;10.30;5.60;;;12.10;99.90;;;;;;5059861;28;20419;-50
2022/10/03 06:10:42;;;;;;;8.90;5.73;;;12.10;99.90;;;;;;5068181;28;20463;-51
2022/10/03 06:13:20;;;;;;;10.43;5.40;;;12.10;99.90;;;;;;5069275;28;20454;-53
2022/10/03 06:15:53;;;;;;;9.00;5.70;;;12.10;99.90;;;;;;5061670;28;20432;-51
2022/10/03 06:18:40;;;;;;;18.77;15.53;;;12.20;99.90;;;;;;5052089;28;20412;-49
2022/10/03 06:21:24;;;;;;;9.37;5.93;;;12.20;99.90;;;;;;5049299;28;20565;-52
2022/10/03 06:24:04;;;;;;;13.63;11.00;;;12.20;99.90;;;;;;5058036;28;20782;-52
2022/10/03 06:26:53;;;;;;;13.73;6.30;;;12.30;99.90;;;;;;5069314;28;20404;-52
2022/10/03 06:29:43;;;;;;;11.67;7.03;;;12.40;99.90;;;;;;5069191;28;20412;-49
2022/10/03 06:32:33;;;;;;;8.93;5.37;;;12.40;99.90;;;;;;5069124;28;20419;-53
2022/10/03 06:35:31;;;;;;;8.20;6.10;;;12.40;99.90;;;;;;5066613;28;20435;-51
2022/10/03 06:38:35;;;;;;;10.73;5.57;;;12.50;99.90;;;;;;5067312;28;21289;-49
2022/10/03 06:41:40;;;;;;;13.50;7.50;;;12.50;99.90;;;;;;5069154;28;20411;-51
2022/10/03 06:44:33;;;;;;;12.03;7.43;;;12.60;99.90;;;;;;5068565;28;20450;-50
2022/10/03 06:47:17;;;;;;;8.90;4.67;;;12.60;99.90;;;;;;5067127;28;20430;-54
2022/10/03 06:50:24;;;;;;;10.33;5.97;;;12.60;99.90;;;;;;5067968;28;20746;-50
2022/10/03 06:53:08;;;;;;;9.43;5.30;;;12.60;99.90;;;;;;4993455;28;20848;-53
2022/10/03 06:56:03;;;;;;;9.47;5.40;;;12.60;99.90;;;;;;5066001;28;20410;-53
2022/10/03 06:58:47;;;;;;;9.23;4.73;;;12.70;99.90;;;;;;5054773;28;20515;-52
2022/10/03 07:01:19;;;;;;;12.00;6.00;;;12.80;99.90;;;;;;5068817;28;20383;-46
2022/10/03 07:03:50;;;;;;;7.97;5.07;;;12.80;99.90;;;;;;5068825;28;20421;-51
2022/10/03 07:06:22;;;;;;;10.37;5.60;;;12.80;99.90;;;;;;5069094;28;20477;-52
2022/10/03 07:09:06;;;;;;;8.27;5.60;;;12.80;99.90;;;;;;5068814;28;20420;-54
2022/10/03 07:11:44;;;;;;;11.80;5.73;;;12.80;99.90;;;;;;5068958;28;20478;-50
2022/10/03 07:14:47;;;;;;;12.57;9.30;;;12.90;99.90;;;;;;5068913;28;20392;-50
2022/10/03 07:17:42;;;;;;;6.93;5.20;;;12.80;99.90;;;;;;5068815;28;20407;-51
2022/10/03 07:20:45;;;;;;;7.37;5.10;;;12.90;99.90;;;;;;5068714;28;21166;-50
2022/10/03 07:23:29;;;;;;;7.50;5.53;;;12.90;99.90;;;;;;5072013;28;20422;-51
2022/10/03 07:26:28;;;;;;;8.13;4.83;;;12.90;99.90;;;;;;5072663;28;20527;-55
2022/10/03 07:29:11;;;;;;;16.37;5.87;;;12.90;99.90;;;;;;5072427;28;20730;-51
2022/10/03 07:32:08;;;;;;;11.60;5.43;;;12.90;99.90;;;;;;5070870;28;20475;-49
2022/10/03 07:35:07;;;;;;;12.83;6.00;;;12.80;99.90;;;;;;5070713;28;20822;-53
2022/10/03 07:40:55;;;;;;;8.87;5.20;;;12.80;99.90;;;;;;5071808;28;20799;-49
2022/10/03 07:43:30;;;;;;;9.47;5.20;;;12.80;99.90;;;;;;5069597;28;20419;-52
2022/10/03 07:46:30;;;;;;;7.00;5.10;;;12.80;99.90;;;;;;5071671;28;20431;-51
2022/10/03 07:49:52;;;;;;;7.93;5.20;;;12.60;99.90;;;;;;5071270;28;20423;-49
2022/10/03 07:52:38;;;;;;;9.20;6.07;;;12.50;99.90;;;;;;4991808;28;20518;-54
2022/10/03 07:55:40;;;;;;;8.97;6.27;;;12.50;99.90;;;;;;4982466;28;20843;-53
2022/10/03 07:58:12;;;;;;;7.83;5.90;;;12.40;99.90;;;;;;5062047;28;20425;-50
2022/10/03 08:01:03;;;;;;;7.57;6.00;;;12.50;99.90;;;;;;5071099;28;20420;-52
2022/10/03 08:04:19;;;;;;;8.63;5.60;;;12.60;99.90;;;;;;5071281;28;20530;-53
2022/10/03 08:07:22;;;;;;;12.27;5.40;;;12.70;99.90;;;;;;5031412;28;20503;-54
2022/10/03 08:10:15;;;;;;;7.27;5.10;;;12.80;99.90;;;;;;5062583;28;20425;-52
2022/10/03 08:13:14;;;;;;;7.43;5.43;;;12.90;99.90;;;;;;5061077;28;20429;-50
2022/10/03 08:16:03;;;;;;;9.40;4.87;;;13.00;99.90;;;;;;5068664;28;20416;-53
2022/10/03 08:18:55;;;;;;;6.87;5.20;;;13.00;99.90;;;;;;5059619;28;20951;-52
2022/10/03 08:21:36;;;;;;;8.30;4.90;;;13.00;99.90;;;;;;5063903;28;20425;-49
2022/10/03 08:24:42;;;;;;;7.57;5.27;;;13.00;99.90;;;;;;5067040;28;20490;-50
2022/10/03 08:27:25;;;;;;;8.47;5.30;;;13.00;99.90;;;;;;5055987;28;20444;-54
2022/10/03 08:30:03;;;;;;;5.87;4.87;;;13.20;99.90;;;;;;5063045;28;20924;-46
2022/10/03 08:32:57;;;;;;;8.80;4.87;;;13.20;99.90;;;;;;5081829;28;20475;-47
2022/10/03 08:35:49;;;;;;;6.33;5.40;;;13.20;99.90;;;;;;5060833;28;20468;-48
2022/10/03 08:38:21;;;;;;;9.93;4.80;;;13.40;99.90;;;;;;5055724;28;20431;-52
2022/10/03 08:41:14;;;;;;;10.33;5.37;;;13.50;99.90;;;;;;5067635;28;20953;-51
2022/10/03 08:43:52;;;;;;;7.80;4.93;;;13.70;99.90;;;;;;5065952;28;20441;-55
2022/10/03 08:46:39;;;;;;;8.50;5.30;;;13.90;99.90;;;;;;5055442;28;20854;-51
2022/10/03 08:49:22;;;;;;;10.80;5.33;;;14.10;99.90;;;;;;5068471;28;20502;-53
2022/10/03 08:52:20;;;;;;;6.23;4.47;;;14.30;99.90;;;;;;5064446;28;20471;-48
2022/10/03 08:55:13;;;;;;;9.17;5.07;;;14.40;99.90;;;;;;5070102;28;20412;-52
2022/10/03 08:57:57;;;;;;;7.40;4.90;;;14.60;99.90;;;;;;5065032;28;20443;-48
2022/10/03 09:00:43;;;;;;;7.53;4.90;;;14.50;99.90;;;;;;5070170;28;20414;-51
2022/10/03 09:03:53;;;;;;;8.60;4.10;;;14.40;99.90;;;;;;5067391;28;20522;-50
2022/10/03 09:06:42;;;;;;;8.80;4.50;;;14.40;99.90;;;;;;5067179;28;20514;-50
2022/10/03 09:09:20;;;;;;;6.90;4.30;;;14.60;99.90;;;;;;5062081;28;20423;-50
2022/10/03 09:12:13;;;;;;;8.47;4.50;;;14.50;99.90;;;;;;5068432;28;21051;-51
2022/10/03 09:14:54;;;;;;;6.80;4.90;;;14.50;99.90;;;;;;5067586;28;20521;-50
2022/10/03 09:17:41;;;;;;;7.30;4.67;;;14.40;99.90;;;;;;5068450;28;20892;-52
2022/10/03 09:20:17;;;;;;;7.47;4.60;;;14.50;99.90;;;;;;5065991;28;20443;-49
2022/10/03 09:22:44;;;;;;;7.33;4.40;;;14.50;99.90;;;;;;5070303;28;20449;-52
2022/10/03 09:25:28;;;;;;;7.70;4.30;;;14.60;99.90;;;;;;5061656;28;20531;-51
2022/10/03 09:27:54;;;;;;;9.00;4.73;;;14.70;99.90;;;;;;5057115;28;20445;-51
2022/10/03 09:30:22;;;;;;;7.63;4.50;;;14.80;99.90;;;;;;5063296;28;20824;-48
2022/10/03 09:33:38;;;;;;;8.50;4.70;;;15.00;99.90;;;;;;5060056;28;20214;-50
2022/10/03 09:36:52;;;;;;;7.00;4.83;;;15.30;99.90;;;;;;5065841;28;20480;-49
2022/10/03 09:39:52;;;;;;;5.40;3.90;;;15.80;99.90;;;;;;5064251;28;20446;-51
2022/10/03 09:42:30;;;;;;;6.43;4.43;;;15.60;99.90;;;;;;5059348;28;20431;-49
2022/10/03 09:45:08;;;;;;;7.03;4.60;;;15.50;99.90;;;;;;5052649;28;20424;-52
2022/10/03 09:48:22;;;;;;;6.87;6.13;;;16.00;99.90;;;;;;5065861;28;20785;-50
2022/10/03 09:50:54;;;;;;;8.60;4.07;;;17.20;99.90;;;;;;5040541;28;20479;-52
2022/10/03 09:53:26;;;;;;;8.60;4.63;;;18.50;99.90;;;;;;5067219;28;20442;-52
2022/10/03 09:56:01;;;;;;;6.27;4.13;;;19.20;97.50;;;;;;5068172;28;20442;-51
2022/10/03 09:58:38;;;;;;;5.03;4.53;;;19.60;95.70;;;;;;5058877;28;20442;-55
2022/10/03 10:01:16;;;;;;;6.63;4.80;;;19.90;93.80;;;;;;5068737;28;20478;-54
2022/10/03 10:03:44;;;;;;;5.17;4.63;;;20.10;89.20;;;;;;5061686;28;20947;-49
2022/10/03 10:06:48;;;;;;;6.37;4.90;;;19.70;91.20;;;;;;5050764;28;20443;-50
2022/10/03 10:09:45;;;;;;;6.20;4.47;;;19.20;90.50;;;;;;5040675;28;20482;-55
2022/10/03 10:12:52;;;;;;;6.70;5.07;;;19.00;91.60;;;;;;5069287;28;20427;-52
2022/10/03 10:15:36;;;;;;;6.00;4.47;;;18.50;92.60;;;;;;5067439;28;20521;-50
2022/10/03 10:18:19;;;;;;;7.43;4.27;;;18.60;91.70;;;;;;5069076;28;20445;-52
2022/10/03 10:21:27;;;;;;;9.63;4.30;;;18.40;92.80;;;;;;5061942;28;20427;-49
2022/10/03 10:24:17;;;;;;;5.30;4.43;;;17.80;94.10;;;;;;5064309;28;20439;-45
2022/10/03 10:27:02;;;;;;;4.03;3.57;;;17.20;95.00;;;;;;5063708;28;20443;-45
2022/10/03 10:29:48;;;;;;;7.30;4.77;;;16.90;96.70;;;;;;5057167;28;20431;-50
2022/10/03 10:32:19;;;;;;;6.77;4.30;;;16.50;96.20;;;;;;5066466;28;20444;-49
2022/10/03 10:35:16;;;;;;;6.67;4.50;;;16.30;99.90;;;;;;5052548;28;20424;-47
2022/10/03 10:38:03;;;;;;;4.63;4.10;;;16.60;98.60;;;;;;5065470;28;20443;-48
2022/10/03 10:40:48;;;;;;;5.53;4.57;;;16.70;99.20;;;;;;5058459;28;20438;-46
2022/10/03 10:43:59;;;;;;;5.87;4.40;;;16.60;99.00;;;;;;5056671;28;20933;-49
2022/10/03 10:46:48;;;;;;;9.67;5.13;;;16.70;99.70;;;;;;5008494;28;20454;-48
2022/10/03 10:49:47;;;;;;;5.50;4.57;;;16.80;98.40;;;;;;5056897;28;20480;-48
2022/10/03 10:52:25;;;;;;;4.93;4.47;;;17.30;97.00;;;;;;5064005;28;20435;-49
2022/10/03 10:55:07;;;;;;;4.93;4.53;;;18.10;94.60;;;;;;5066381;28;20449;-47
2022/10/03 10:57:39;;;;;;;7.47;4.43;;;18.40;92.90;;;;;;5063390;28;20522;-47
2022/10/03 11:00:19;;;;;;;6.83;4.53;;;18.20;92.30;;;;;;5065207;28;20423;-48
2022/10/03 11:02:45;;;;;;;4.83;4.33;;;17.60;93.80;;;;;;5067389;28;20446;-50
2022/10/03 11:05:33;;;;;;;4.97;4.47;;;17.20;95.10;;;;;;5062439;28;20973;-44
2022/10/03 11:08:29;;;;;;;6.50;4.40;;;17.80;95.50;;;;;;5064512;28;20569;-47
2022/10/03 11:11:13;;;;;;;6.37;4.70;;;18.10;93.10;;;;;;5070827;28;20451;-47
2022/10/03 11:14:18;;;;;;;6.50;4.63;;;18.00;93.30;;;;;;5052016;28;20438;-49
2022/10/03 11:17:02;;;;;;;7.53;4.07;;;17.90;93.50;;;;;;5008887;28;20456;-45
2022/10/03 11:19:41;;;;;;;5.63;4.60;;;17.60;94.40;;;;;;5010657;28;20441;-45
2022/10/03 11:22:38;;;;;;;6.10;4.20;;;17.60;94.30;;;;;;5052636;28;20478;-45
2022/10/03 11:25:39;;;;;;;5.13;4.30;;;17.40;95.70;;;;;;5039952;28;20493;-46
2022/10/03 11:28:20;;;;;;;6.40;4.10;;;17.00;94.60;;;;;;5070462;28;20785;-45
2022/10/03 11:31:05;;;;;;;5.40;4.93;;;16.80;96.20;;;;;;5056721;28;20444;-44
2022/10/03 11:33:48;;;;;;;4.10;3.60;;;16.70;97.00;;;;;;5063409;28;20430;-47
2022/10/03 11:36:28;;;;;;;6.13;4.40;;;16.90;96.30;;;;;;5066326;28;20529;-47
2022/10/03 11:39:22;;;;;;;5.30;3.83;;;17.10;95.80;;;;;;5062996;28;20430;-46
2022/10/03 11:42:12;;;;;;;7.70;3.80;;;17.40;95.30;;;;;;5039268;28;20445;-48
2022/10/03 11:44:44;;;;;;;4.47;4.07;;;17.50;95.50;;;;;;5066820;28;20419;-45
2022/10/03 11:47:24;;;;;;;5.07;4.13;;;17.60;94.50;;;;;;5071190;28;20435;-50
2022/10/03 11:50:05;;;;;;;7.90;4.20;;;17.50;94.60;;;;;;5065858;28;20436;-47
2022/10/03 11:52:41;;;;;;;7.80;4.33;;;17.40;95.40;;;;;;5063767;28;20431;-47
2022/10/03 11:55:32;;;;;;;6.20;4.00;;;17.30;95.20;;;;;;5070782;28;20998;-45
2022/10/03 11:58:07;;;;;;;7.70;3.63;;;17.30;95.10;;;;;;5068701;28;20428;-45
2022/10/03 12:00:36;;;;;;;4.00;3.30;;;17.30;95.90;;;;;;5071126;28;20415;-49
2022/10/03 12:03:28;;;;;;;6.73;4.00;;;16.90;96.20;;;;;;5068821;28;20423;-48
2022/10/03 12:09:23;;;;;;;6.30;4.07;;;16.80;96.50;;;;;;5067464;28;20458;-52
2022/10/03 12:12:03;;;;;;;8.07;3.80;;;16.70;97.60;;;;;;5061219;28;20527;-47
2022/10/03 12:14:45;;;;;;;4.53;3.73;;;16.90;98.50;;;;;;5064788;28;21289;-49
2022/10/03 12:17:34;;;;;;;6.10;4.50;;;16.80;98.10;;;;;;5062190;28;20600;-46
2022/10/03 12:20:17;;;;;;;6.07;4.00;;;16.60;98.20;;;;;;5070406;28;20771;-52
2022/10/03 12:23:24;;;;;;;4.17;3.77;;;16.50;98.10;;;;;;5062572;28;20434;-48
2022/10/03 12:25:52;;;;;;;4.83;3.93;;;16.60;97.80;;;;;;5070134;28;20423;-52
2022/10/03 12:28:40;;;;;;;7.10;4.07;;;16.70;97.50;;;;;;5069925;28;21271;-48
2022/10/03 12:31:27;;;;;;;4.63;3.83;;;16.60;97.80;;;;;;5070744;28;20462;-46
2022/10/03 12:34:08;;;;;;;3.57;3.10;;;16.60;97.70;;;;;;5069467;28;20535;-46
2022/10/03 12:36:43;;;;;;;7.27;3.80;;;16.60;97.40;;;;;;5062469;28;21052;-47
2022/10/03 12:39:21;;;;;;;4.70;3.80;;;16.60;97.50;;;;;;5064079;28;20428;-47
2022/10/03 12:42:04;;;;;;;4.90;3.97;;;16.50;98.30;;;;;;5070351;28;20873;-45
2022/10/03 12:44:44;;;;;;;6.23;3.93;;;16.80;98.40;;;;;;5067828;28;20427;-48
2022/10/03 12:47:28;;;;;;;5.67;4.07;;;17.20;96.80;;;;;;5070284;28;20415;-49
2022/10/03 12:50:12;;;;;;;4.47;3.63;;;17.20;96.30;;;;;;5069162;28;20811;-47
2022/10/03 12:53:16;;;;;;;4.70;3.90;;;17.10;96.50;;;;;;5068751;28;20449;-52
2022/10/03 12:56:00;;;;;;;6.27;4.17;;;16.90;97.20;;;;;;5061664;28;20557;-49
2022/10/03 12:58:37;;;;;;;8.27;4.53;;;16.70;97.60;;;;;;5067263;28;20503;-50
2022/10/03 13:01:27;;;;;;;4.13;3.57;;;16.70;99.00;;;;;;5067598;28;20429;-43
2022/10/03 13:04:18;;;;;;;7.60;4.07;;;16.60;98.70;;;;;;5074106;28;20507;-46
2022/10/03 13:07:21;;;;;;;8.00;3.87;;;16.50;99.50;;;;;;5064612;28;20928;-49
2022/10/03 13:10:08;;;;;;;6.67;4.00;;;16.40;99.80;;;;;;5072829;28;20431;-49
2022/10/03 13:12:50;;;;;;;4.43;3.87;;;16.40;99.90;;;;;;5059405;28;20442;-47
2022/10/03 13:15:30;;;;;;;4.00;3.60;;;16.40;99.90;;;;;;5061377;28;20430;-48
2022/10/03 13:18:20;;;;;;;5.97;3.50;;;16.30;99.90;;;;;;5065858;28;20427;-46
2022/10/03 13:20:58;;;;;;;5.80;3.40;;;16.10;99.90;;;;;;5061362;28;20438;-46
2022/10/03 13:23:41;;;;;;;5.07;4.10;;;16.20;99.90;;;;;;5065963;28;20893;-50
2022/10/03 13:26:11;;;;;;;3.83;3.27;;;16.30;99.90;;;;;;5066823;28;20431;-49
2022/10/03 13:28:52;;;;;;;6.77;3.70;;;16.30;99.90;;;;;;5060347;28;20419;-50
2022/10/03 13:31:23;;;;;;;6.93;3.40;;;16.40;99.90;;;;;;5067844;28;20504;-47
2022/10/03 13:33:59;;;;;;;6.07;3.60;;;16.30;99.90;;;;;;5067627;28;20435;-49
2022/10/03 13:36:33;;;;;;;4.13;3.57;;;16.40;99.90;;;;;;5061784;28;21073;-47
2022/10/03 13:39:15;;;;;;;4.60;3.43;;;16.40;99.90;;;;;;5067468;28;20452;-47
2022/10/03 13:41:58;;;;;;;3.30;3.00;;;16.40;99.90;;;;;;5066735;28;20406;-50
2022/10/03 13:44:39;;;;;;;7.27;3.90;;;16.40;99.90;;;;;;5063331;28;20776;-53
2022/10/03 13:47:14;;;;;;;7.53;3.90;;;16.80;99.20;;;;;;5065653;28;20437;-55
2022/10/03 13:50:00;;;;;;;5.40;3.83;;;17.30;98.10;;;;;;5060367;28;20435;-53
2022/10/03 13:52:52;;;;;;;5.10;3.90;;;17.80;96.60;;;;;;5057825;28;20453;-52
2022/10/03 13:55:27;;;;;;;4.03;3.50;;;17.70;95.30;;;;;;5063261;28;20424;-52
2022/10/03 13:58:22;;;;;;;6.27;4.33;;;17.50;96.00;;;;;;5064006;28;20784;-54
2022/10/03 14:01:12;;;;;;;5.77;4.53;;;17.30;97.30;;;;;;5061928;28;20423;-47
2022/10/03 14:04:00;;;;;;;4.17;3.87;;;17.10;97.60;;;;;;5063137;28;20437;-47
2022/10/03 14:06:45;;;;;;;5.20;4.23;;;16.90;98.60;;;;;;5067802;28;21522;-48
2022/10/03 14:10:05;;;;;;;5.83;3.90;;;16.70;99.60;;;;;;5064807;28;20439;-49
2022/10/03 14:12:32;;;;;;;5.83;3.70;;;16.60;99.90;;;;;;4983480;28;20454;-44
2022/10/03 14:15:20;;;;;;;4.40;4.00;;;16.40;99.90;;;;;;5049132;28;20465;-47
2022/10/03 14:18:17;;;;;;;5.37;3.50;;;16.20;99.90;;;;;;5063731;28;20904;-48
2022/10/03 14:21:21;;;;;;;4.60;3.40;;;15.90;99.90;;;;;;5064929;28;20553;-48
2022/10/03 14:23:59;;;;;;;10.97;9.00;;;15.90;99.90;;;;;;5066256;28;21269;-49
2022/10/03 14:26:41;;;;;;;6.33;4.30;;;15.80;99.90;;;;;;5068187;28;20957;-49
2022/10/03 14:29:07;;;;;;;10.40;6.10;;;15.70;99.90;;;;;;5063068;28;20503;-50
2022/10/03 14:31:55;;;;;;;9.37;6.70;;;15.60;99.90;;;;;;5065115;28;20463;-47
2022/10/03 14:34:57;;;;;;;12.60;11.30;;;15.60;99.90;;;;;;5068587;28;20190;-50
2022/10/03 14:37:52;;;;;;;11.43;10.33;;;15.50;99.90;;;;;;5052252;28;20475;-46